Strona główna
METAR-TAF:

METAR-TAF

Lotnisko :

Port lotniczy Mora-Siljan

Mora, Szwecja

Szerokość geograficzna: 60-57-31N, Długość geograficzna: 14-30-40E, wysokość: 193 m

Aktualna obserwacja pogody

Raport powstał 53 minut temu, godzina 11:20 UTC
Wiatr 17 kt od zachód w porywach dochodzący do 28 kt, zmienny między zachodnio-południowy zachód i północny zachód
Temperatura 4°C
Wilgotność 32%
Ciśnienie 993 hPa
Widzialność 10 km lub więcej

METAR: ESKM 031120Z AUTO 28017G28KT 240V310 9999 FEW066/// 04/M11 Q0993

czas: 14:13 (12:13 UTC)


TAF: brakujący

Obserwacja i prognoza pogody dla ponad 4000 lotnisk (raport METAR i TAF).

Dostępne stacje oznaczono żółtymi i czerwonymi punktami na mapie.

Najedź kursorem aby zobaczyć nazwę stacji.

Kliknij aby zobaczyć obserwacje i prognozy pogody.

Aby zmienić mapę: kliknij na zielony przycisk z czarnym krzyżykiem, aby powiększyć; na zielony przycisk z myślnikiem, aby pomniejszyć; na zielone strzałki, aby przejść do map sąsiednich.


METAR-TAF: